Time;durP1;ratioP1;P1;durP2;ratioP2;P2;SDS_P1;SDS_P2;PMS_P1;PMS_P2;Temp;Humidity;BMP_temperature;BMP_pressure;BME280_temperature;BME280_humidity;BME280_pressure;Samples;Min_cycle;Max_cycle;Signal;HPM_P1;HPM_P2
2023/06/24 00:02:08;;;;;;;9.25;4.80;;;24.20;67.10;;;;;;5036141;28;20038;-73
2023/06/24 00:04:34;;;;;;;7.68;4.57;;;24.20;67.30;;;;;;5035961;28;20076;-73
2023/06/24 00:07:01;;;;;;;9.65;4.30;;;24.20;67.30;;;;;;5036133;28;20072;-73
2023/06/24 00:09:27;;;;;;;6.60;3.83;;;24.20;67.50;;;;;;5035931;28;20064;-73
2023/06/24 00:11:54;;;;;;;10.20;3.78;;;24.20;67.50;;;;;;5035955;28;20512;-73
2023/06/24 00:14:21;;;;;;;8.45;4.53;;;24.10;66.60;;;;;;5035820;28;20540;-73
2023/06/24 00:16:51;;;;;;;5.70;3.25;;;24.10;66.90;;;;;;5036036;28;20017;-73
2023/06/24 00:19:19;;;;;;;8.23;4.13;;;24.10;67.10;;;;;;5035809;28;20064;-73
2023/06/24 00:21:45;;;;;;;15.77;8.98;;;24.00;66.60;;;;;;5036036;28;20075;-73
2023/06/24 00:24:10;;;;;;;16.42;8.43;;;24.00;66.30;;;;;;5035527;28;20025;-73
2023/06/24 00:26:36;;;;;;;18.58;8.68;;;24.00;66.10;;;;;;5035547;28;20053;-73
2023/06/24 00:29:02;;;;;;;15.48;7.43;;;24.00;66.40;;;;;;5035572;28;20100;-73
2023/06/24 00:31:31;;;;;;;12.52;5.13;;;24.10;66.00;;;;;;5035707;28;20030;-73
2023/06/24 00:33:57;;;;;;;13.52;6.38;;;24.10;65.70;;;;;;5035563;28;20017;-73
2023/06/24 00:36:22;;;;;;;7.95;5.10;;;24.20;65.90;;;;;;5035217;28;20124;-73
2023/06/24 00:38:51;;;;;;;8.30;4.57;;;24.10;65.60;;;;;;5034992;28;20029;-73
2023/06/24 00:41:18;;;;;;;8.93;3.80;;;24.00;65.70;;;;;;5033872;28;20377;-73
2023/06/24 00:43:44;;;;;;;6.00;3.65;;;24.00;66.20;;;;;;5035271;28;20021;-73
2023/06/24 00:46:10;;;;;;;6.60;4.30;;;24.00;66.80;;;;;;5035138;28;20025;-73
2023/06/24 00:48:36;;;;;;;5.13;3.45;;;23.90;67.00;;;;;;5035210;28;20040;-73
2023/06/24 00:51:02;;;;;;;10.15;3.92;;;23.80;67.20;;;;;;5035246;28;20112;-73
2023/06/24 00:53:28;;;;;;;6.75;3.72;;;23.80;67.00;;;;;;5035115;28;20025;-73
2023/06/24 00:55:55;;;;;;;4.13;3.25;;;23.80;67.00;;;;;;5035127;28;20021;-73
2023/06/24 00:58:21;;;;;;;8.63;3.65;;;23.70;66.90;;;;;;5032608;28;20486;-73
2023/06/24 01:00:56;;;;;;;6.57;4.07;;;23.70;67.20;;;;;;5032213;28;20528;-73
2023/06/24 01:03:24;;;;;;;5.57;3.83;;;23.70;67.30;;;;;;5032110;28;20032;-73
2023/06/24 01:05:50;;;;;;;5.88;3.70;;;23.60;66.60;;;;;;5034122;28;20099;-73
2023/06/24 01:08:19;;;;;;;5.13;3.70;;;23.60;66.90;;;;;;5034874;28;20466;-73
2023/06/24 01:10:45;;;;;;;5.35;3.83;;;23.50;67.00;;;;;;5034709;28;20444;-73
2023/06/24 01:13:10;;;;;;;6.40;3.50;;;23.50;66.70;;;;;;5034334;28;20071;-73
2023/06/24 01:15:36;;;;;;;7.85;3.40;;;23.40;66.30;;;;;;5034777;28;20029;-73
2023/06/24 01:18:08;;;;;;;6.45;3.58;;;23.50;66.00;;;;;;5034575;28;20025;-73
2023/06/24 01:20:46;;;;;;;10.35;4.25;;;23.50;65.80;;;;;;5034330;28;20103;-73
2023/06/24 01:23:30;;;;;;;8.15;3.85;;;23.60;64.90;;;;;;5034516;28;20026;-73
2023/06/24 01:26:14;;;;;;;6.30;3.53;;;23.60;64.60;;;;;;5034118;28;20045;-73
2023/06/24 01:28:48;;;;;;;5.40;3.13;;;23.70;65.00;;;;;;5032721;28;20442;-72
2023/06/24 01:31:46;;;;;;;5.03;3.45;;;23.60;65.50;;;;;;5034347;28;20527;-73
2023/06/24 01:34:21;;;;;;;7.15;3.47;;;23.60;64.80;;;;;;5034530;28;20025;-72
2023/06/24 01:37:17;;;;;;;5.57;3.28;;;23.60;64.80;;;;;;5033912;28;20457;-73
2023/06/24 01:39:50;;;;;;;4.68;3.63;;;23.50;65.10;;;;;;5025957;28;20037;-73
2023/06/24 01:42:19;;;;;;;8.95;3.78;;;23.50;65.70;;;;;;5034307;28;20418;-73
2023/06/24 01:44:48;;;;;;;5.88;3.70;;;23.50;65.40;;;;;;5034166;28;20092;-73
2023/06/24 01:47:26;;;;;;;4.63;3.17;;;23.40;65.30;;;;;;5034226;28;20108;-73
2023/06/24 01:49:55;;;;;;;4.32;3.38;;;23.40;64.00;;;;;;5034094;28;20462;-73
2023/06/24 01:52:23;;;;;;;3.97;3.25;;;23.40;63.50;;;;;;5033941;28;20033;-73
2023/06/24 01:54:49;;;;;;;7.55;3.55;;;23.50;62.90;;;;;;5034197;28;20491;-73
2023/06/24 01:57:17;;;;;;;5.03;3.28;;;23.40;62.90;;;;;;5034062;28;20026;-72
2023/06/24 01:59:46;;;;;;;6.05;3.60;;;23.50;63.40;;;;;;5033921;28;20033;-72
2023/06/24 02:02:13;;;;;;;4.90;2.95;;;23.50;63.80;;;;;;5033318;28;21136;-73
2023/06/24 02:04:39;;;;;;;4.72;3.30;;;23.40;63.80;;;;;;5034003;28;20026;-72
2023/06/24 02:07:08;;;;;;;5.25;3.17;;;23.40;63.20;;;;;;5033783;28;20037;-72
2023/06/24 02:09:34;;;;;;;5.18;3.58;;;23.40;63.00;;;;;;5033571;28;20469;-72
2023/06/24 02:12:03;;;;;;;4.18;3.25;;;23.30;62.80;;;;;;5032705;28;20489;-72
2023/06/24 02:14:31;;;;;;;4.85;3.60;;;23.40;62.50;;;;;;5033656;28;20032;-72
2023/06/24 02:17:00;;;;;;;5.75;3.22;;;23.40;62.50;;;;;;5033712;28;20022;-72
2023/06/24 02:19:30;;;;;;;5.57;3.53;;;23.40;62.20;;;;;;5033989;28;20425;-73
2023/06/24 02:22:01;;;;;;;9.65;3.47;;;23.30;62.30;;;;;;5033861;28;20026;-72
2023/06/24 02:24:28;;;;;;;4.60;3.22;;;23.30;62.50;;;;;;5033509;28;20377;-72
2023/06/24 02:26:59;;;;;;;6.07;3.90;;;23.30;62.10;;;;;;5033677;28;20033;-73
2023/06/24 02:29:27;;;;;;;4.18;3.53;;;23.20;62.00;;;;;;5033487;28;20021;-72
2023/06/24 02:31:53;;;;;;;4.10;3.40;;;23.30;62.50;;;;;;5033573;28;20030;-73
2023/06/24 02:34:20;;;;;;;8.90;4.88;;;23.20;62.50;;;;;;5033541;28;20017;-73
2023/06/24 02:36:45;;;;;;;6.55;4.25;;;23.20;62.70;;;;;;5033335;28;20052;-72
2023/06/24 02:39:11;;;;;;;9.10;4.15;;;23.20;62.90;;;;;;5033161;28;20013;-73
2023/06/24 02:41:37;;;;;;;9.40;3.40;;;23.20;62.80;;;;;;5033350;28;20100;-73
2023/06/24 02:44:03;;;;;;;5.32;3.28;;;23.20;62.10;;;;;;5033407;28;20469;-73
2023/06/24 02:46:31;;;;;;;9.45;3.90;;;23.20;62.20;;;;;;5033256;28;20036;-73
2023/06/24 02:48:58;;;;;;;9.13;4.63;;;23.20;62.40;;;;;;5033506;28;20033;-73
2023/06/24 02:51:25;;;;;;;9.25;5.10;;;23.20;62.60;;;;;;5033020;28;20045;-72
2023/06/24 02:53:51;;;;;;;12.25;6.05;;;23.20;63.20;;;;;;5033095;28;20057;-73
2023/06/24 02:56:20;;;;;;;14.32;7.15;;;23.20;63.30;;;;;;5033232;28;20022;-72
2023/06/24 02:58:47;;;;;;;11.30;5.88;;;23.10;63.40;;;;;;5033295;28;20104;-73
2023/06/24 03:01:15;;;;;;;12.10;6.00;;;23.10;63.60;;;;;;5032884;28;20543;-73
2023/06/24 03:03:42;;;;;;;10.18;5.25;;;23.10;63.70;;;;;;5032852;28;20393;-73
2023/06/24 03:06:12;;;;;;;10.25;5.10;;;23.20;64.10;;;;;;5032533;28;20034;-73
2023/06/24 03:08:39;;;;;;;7.75;4.28;;;23.10;64.20;;;;;;5033062;28;20025;-72
2023/06/24 03:11:04;;;;;;;7.57;4.20;;;23.10;63.60;;;;;;5032985;28;20026;-73
2023/06/24 03:13:30;;;;;;;6.55;4.20;;;23.10;63.20;;;;;;5031855;28;20040;-73
2023/06/24 03:15:56;;;;;;;4.65;3.10;;;23.10;63.10;;;;;;5032854;28;20100;-73
2023/06/24 03:18:22;;;;;;;4.55;3.05;;;23.20;61.70;;;;;;5032678;28;20517;-73
2023/06/24 03:20:48;;;;;;;12.55;4.30;;;23.20;61.30;;;;;;5032661;28;20056;-73
2023/06/24 03:23:13;;;;;;;7.00;3.38;;;23.30;61.40;;;;;;5036411;28;20055;-73
2023/06/24 03:25:39;;;;;;;8.93;3.83;;;23.20;61.30;;;;;;5036926;28;20033;-73
2023/06/24 03:28:07;;;;;;;15.70;4.25;;;23.20;61.60;;;;;;5036696;28;20022;-73
2023/06/24 03:30:33;;;;;;;7.97;3.75;;;23.30;61.40;;;;;;5036810;28;20026;-73
2023/06/24 03:32:59;;;;;;;7.40;3.15;;;23.30;61.90;;;;;;5036719;28;20101;-73
2023/06/24 03:35:24;;;;;;;7.53;3.33;;;23.30;61.90;;;;;;5036661;28;20075;-73
2023/06/24 03:37:50;;;;;;;16.00;4.93;;;23.30;62.20;;;;;;5036538;28;20034;-74
2023/06/24 03:40:17;;;;;;;10.18;3.97;;;23.30;62.80;;;;;;5036593;28;20037;-73
2023/06/24 03:42:42;;;;;;;10.93;4.82;;;23.20;63.00;;;;;;5036943;28;20531;-73
2023/06/24 03:45:08;;;;;;;17.40;5.28;;;23.20;64.10;;;;;;5036493;28;20021;-74
2023/06/24 03:47:34;;;;;;;13.35;5.78;;;23.20;64.90;;;;;;5036613;28;20025;-74
2023/06/24 03:50:00;;;;;;;15.93;5.85;;;23.20;65.50;;;;;;5036277;28;20021;-74
2023/06/24 03:52:26;;;;;;;18.92;6.43;;;23.10;65.40;;;;;;5035991;28;20148;-74
2023/06/24 03:54:51;;;;;;;26.00;7.20;;;23.10;66.40;;;;;;5036438;28;20025;-74
2023/06/24 03:57:18;;;;;;;9.80;5.07;;;23.00;68.20;;;;;;5036371;28;20032;-74
2023/06/24 03:59:44;;;;;;;17.92;7.50;;;23.00;68.20;;;;;;5036619;28;20026;-73
2023/06/24 04:02:10;;;;;;;14.65;7.50;;;23.00;67.20;;;;;;5036212;28;20025;-74
2023/06/24 04:04:35;;;;;;;19.45;9.65;;;23.00;69.30;;;;;;5036380;28;20037;-74
2023/06/24 04:07:01;;;;;;;22.70;12.25;;;23.00;69.00;;;;;;5035764;28;20033;-74
2023/06/24 04:09:29;;;;;;;22.20;12.70;;;23.00;68.70;;;;;;5035098;28;20079;-74
2023/06/24 04:11:55;;;;;;;19.88;11.43;;;23.00;68.30;;;;;;5036335;28;20025;-74
2023/06/24 04:14:20;;;;;;;15.57;9.70;;;23.00;68.30;;;;;;5036153;28;20067;-75
2023/06/24 04:16:46;;;;;;;16.33;8.30;;;23.00;68.10;;;;;;5035975;28;20453;-74
2023/06/24 04:19:12;;;;;;;7.47;5.43;;;23.00;67.50;;;;;;5036083;28;20052;-74
2023/06/24 04:21:38;;;;;;;8.35;5.00;;;23.00;67.00;;;;;;5035708;28;20064;-74
2023/06/24 04:24:04;;;;;;;5.03;3.20;;;23.00;66.60;;;;;;5035782;28;20026;-74
2023/06/24 04:26:30;;;;;;;4.97;2.85;;;23.10;65.90;;;;;;5035798;28;20037;-74
2023/06/24 04:28:56;;;;;;;3.90;2.50;;;23.10;65.10;;;;;;5035823;28;20026;-74
2023/06/24 04:31:22;;;;;;;8.63;3.30;;;23.10;64.10;;;;;;5035576;28;20102;-73
2023/06/24 04:33:47;;;;;;;4.05;2.55;;;23.20;63.60;;;;;;5033451;28;20064;-73
2023/06/24 04:36:13;;;;;;;5.28;2.70;;;23.20;63.60;;;;;;5035267;28;20057;-74
2023/06/24 04:38:39;;;;;;;4.05;2.70;;;23.20;63.20;;;;;;5035758;28;20021;-74
2023/06/24 04:41:05;;;;;;;8.68;2.72;;;23.30;62.90;;;;;;5035529;28;20014;-74
2023/06/24 04:43:30;;;;;;;10.65;2.45;;;23.30;62.40;;;;;;5035465;28;20114;-74
2023/06/24 04:45:56;;;;;;;9.25;2.83;;;23.30;62.40;;;;;;5035328;28;20044;-74
2023/06/24 04:48:26;;;;;;;4.03;2.28;;;23.30;62.90;;;;;;5035143;28;20021;-74
2023/06/24 04:50:53;;;;;;;5.82;2.70;;;23.40;62.90;;;;;;5034962;28;20496;-74
2023/06/24 04:53:19;;;;;;;5.63;2.50;;;23.40;62.60;;;;;;5034998;28;20020;-74
2023/06/24 04:55:44;;;;;;;2.28;1.80;;;23.40;62.40;;;;;;5035107;28;20021;-74
2023/06/24 04:58:10;;;;;;;2.35;1.90;;;23.50;61.90;;;;;;5035087;28;20374;-74
2023/06/24 05:00:36;;;;;;;5.68;2.40;;;23.50;61.20;;;;;;5033777;28;20033;-74
2023/06/24 05:03:02;;;;;;;2.88;1.70;;;23.60;60.50;;;;;;5034661;28;20025;-74
2023/06/24 05:05:27;;;;;;;3.25;1.92;;;23.60;60.20;;;;;;5035011;28;20026;-74
2023/06/24 05:07:53;;;;;;;4.65;2.05;;;23.60;59.80;;;;;;5035118;28;20470;-75
2023/06/24 05:10:19;;;;;;;2.80;2.10;;;23.70;59.60;;;;;;5034944;28;20033;-75
2023/06/24 05:12:44;;;;;;;3.17;2.42;;;23.80;60.40;;;;;;5035677;28;20079;-74
2023/06/24 05:15:10;;;;;;;5.45;2.50;;;23.80;61.10;;;;;;5034876;28;20426;-75
2023/06/24 05:17:36;;;;;;;2.78;1.90;;;23.80;61.50;;;;;;5035070;28;20053;-74
2023/06/24 05:20:03;;;;;;;2.78;1.77;;;23.80;61.50;;;;;;5034830;28;20029;-74
2023/06/24 05:22:29;;;;;;;2.63;1.70;;;23.90;60.70;;;;;;5034872;28;20033;-75
2023/06/24 05:24:54;;;;;;;2.75;1.58;;;23.90;59.70;;;;;;5034711;28;20030;-74
2023/06/24 05:27:20;;;;;;;2.35;1.85;;;23.90;59.20;;;;;;5034491;28;20124;-74
2023/06/24 05:29:46;;;;;;;1.88;1.63;;;24.00;59.00;;;;;;5034497;28;20105;-75
2023/06/24 05:32:12;;;;;;;5.72;1.52;;;24.00;58.80;;;;;;5034237;28;20026;-74
2023/06/24 05:34:37;;;;;;;2.50;1.70;;;24.00;58.60;;;;;;5034167;28;20029;-74
2023/06/24 05:37:03;;;;;;;3.45;1.77;;;24.10;58.60;;;;;;5034078;28;20057;-74
2023/06/24 05:39:30;;;;;;;3.42;1.75;;;24.10;58.60;;;;;;5033859;28;20034;-74
2023/06/24 05:41:56;;;;;;;2.38;1.70;;;24.20;58.60;;;;;;5033758;28;20037;-74
2023/06/24 05:44:23;;;;;;;2.20;1.58;;;24.20;58.40;;;;;;5034032;28;20021;-75
2023/06/24 05:46:48;;;;;;;1.88;1.60;;;24.30;58.40;;;;;;5033336;28;20393;-73
2023/06/24 05:49:14;;;;;;;3.60;1.73;;;24.30;58.40;;;;;;5033905;28;20101;-74
2023/06/24 05:51:40;;;;;;;3.60;1.50;;;24.30;58.40;;;;;;5034294;28;20052;-74
2023/06/24 05:54:08;;;;;;;2.70;1.80;;;24.40;58.40;;;;;;5031373;28;20026;-74
2023/06/24 05:56:34;;;;;;;4.03;1.98;;;24.50;58.40;;;;;;5030600;28;20030;-72
2023/06/24 05:59:00;;;;;;;2.83;1.80;;;24.50;58.00;;;;;;5031169;28;20465;-73
2023/06/24 06:01:26;;;;;;;2.47;1.60;;;24.50;58.00;;;;;;5033668;28;20047;-72
2023/06/24 06:03:51;;;;;;;12.95;2.42;;;24.50;58.20;;;;;;5033774;28;20093;-69
2023/06/24 06:06:17;;;;;;;5.20;1.80;;;24.60;59.00;;;;;;5033673;28;20129;-73
2023/06/24 06:08:43;;;;;;;2.65;1.90;;;24.50;59.00;;;;;;5033285;28;20359;-75
2023/06/24 06:11:09;;;;;;;3.13;1.85;;;24.60;59.20;;;;;;5032207;28;20037;-75
2023/06/24 06:13:35;;;;;;;3.55;2.42;;;24.60;59.60;;;;;;5033359;28;20076;-76
2023/06/24 06:16:01;;;;;;;3.22;2.17;;;24.60;60.10;;;;;;5031386;28;20030;-76
2023/06/24 06:18:26;;;;;;;2.10;1.75;;;24.50;60.50;;;;;;5030218;28;20029;-75
2023/06/24 06:20:52;;;;;;;3.42;2.10;;;24.60;60.40;;;;;;5031539;28;20029;-75
2023/06/24 06:23:18;;;;;;;3.47;2.22;;;24.60;60.30;;;;;;5032090;28;20029;-74
2023/06/24 06:25:44;;;;;;;3.90;2.17;;;24.60;60.10;;;;;;5032436;28;20056;-74
2023/06/24 06:28:09;;;;;;;4.32;2.13;;;24.60;60.10;;;;;;5033634;28;20028;-74
2023/06/24 06:30:35;;;;;;;8.32;2.50;;;24.60;60.10;;;;;;5033196;28;20478;-74
2023/06/24 06:33:01;;;;;;;2.85;1.95;;;24.60;60.10;;;;;;5033311;28;20040;-74
2023/06/24 06:35:27;;;;;;;5.80;1.92;;;24.60;60.10;;;;;;5033335;28;20048;-74
2023/06/24 06:37:54;;;;;;;2.13;1.60;;;24.60;59.40;;;;;;5033510;28;20036;-74
2023/06/24 06:40:20;;;;;;;2.85;1.90;;;24.60;59.20;;;;;;5033017;28;20087;-74
2023/06/24 06:42:47;;;;;;;6.97;1.90;;;24.60;59.50;;;;;;5032855;28;20028;-74
2023/06/24 06:45:12;;;;;;;2.78;2.05;;;24.60;59.20;;;;;;5032659;28;20385;-74
2023/06/24 06:47:38;;;;;;;3.25;2.17;;;24.60;58.90;;;;;;5033026;28;20116;-74
2023/06/24 06:50:04;;;;;;;4.22;2.08;;;24.60;58.60;;;;;;5033412;28;20026;-73
2023/06/24 06:52:30;;;;;;;2.90;1.90;;;24.60;59.00;;;;;;5033271;28;20037;-74
2023/06/24 06:54:56;;;;;;;3.67;1.92;;;24.60;59.10;;;;;;5033060;28;20029;-74
2023/06/24 06:57:22;;;;;;;3.38;2.20;;;24.50;59.20;;;;;;5032995;28;20104;-74
2023/06/24 06:59:50;;;;;;;4.38;2.05;;;24.50;59.40;;;;;;5033333;28;20109;-74
2023/06/24 07:02:19;;;;;;;2.63;1.98;;;24.50;59.40;;;;;;5033189;28;20033;-73
2023/06/24 07:04:47;;;;;;;5.03;2.25;;;24.50;59.40;;;;;;5033181;28;20508;-74
2023/06/24 07:07:14;;;;;;;3.38;2.13;;;24.60;59.70;;;;;;5032964;28;20218;-74
2023/06/24 07:09:40;;;;;;;2.65;2.17;;;24.60;59.50;;;;;;5033078;28;20534;-74
2023/06/24 07:12:06;;;;;;;5.15;2.17;;;24.60;59.30;;;;;;5032821;28;20026;-74
2023/06/24 07:14:32;;;;;;;4.13;2.22;;;24.60;59.70;;;;;;5032952;28;20385;-74
2023/06/24 07:16:58;;;;;;;7.30;2.05;;;24.70;60.00;;;;;;5033040;28;20030;-74
2023/06/24 07:19:24;;;;;;;2.90;2.28;;;24.70;59.60;;;;;;5032769;28;20016;-74
2023/06/24 07:21:49;;;;;;;3.65;2.17;;;24.70;59.20;;;;;;5032947;28;20091;-74
2023/06/24 07:24:15;;;;;;;2.72;2.15;;;24.70;59.30;;;;;;5033001;28;20028;-74
2023/06/24 07:26:41;;;;;;;2.75;2.00;;;24.70;59.10;;;;;;5032711;28;20529;-74
2023/06/24 07:29:07;;;;;;;5.68;2.08;;;24.80;58.70;;;;;;5032602;28;20026;-74
2023/06/24 07:31:34;;;;;;;4.28;2.00;;;24.80;58.20;;;;;;5032906;28;20117;-74
2023/06/24 07:33:59;;;;;;;3.90;1.98;;;24.80;59.20;;;;;;5032427;28;20029;-74
2023/06/24 07:36:25;;;;;;;2.15;1.80;;;24.90;59.80;;;;;;5053828;22;20061;-74
2023/06/24 07:38:51;;;;;;;7.63;1.80;;;24.90;59.30;;;;;;5052395;28;20025;-74
2023/06/24 07:41:17;;;;;;;2.08;1.65;;;25.00;59.00;;;;;;5052384;28;20032;-74
2023/06/24 07:43:42;;;;;;;4.97;1.98;;;25.00;59.00;;;;;;5052334;28;20032;-74
2023/06/24 07:46:08;;;;;;;4.18;2.17;;;25.10;59.20;;;;;;5052575;28;20037;-74
2023/06/24 07:48:34;;;;;;;2.83;2.05;;;25.10;59.50;;;;;;5051909;28;20472;-74
2023/06/24 07:51:00;;;;;;;3.47;1.92;;;25.20;59.60;;;;;;5050848;28;20040;-74
2023/06/24 07:53:25;;;;;;;2.75;2.10;;;25.20;58.70;;;;;;5052244;28;20028;-75
2023/06/24 07:55:51;;;;;;;2.58;1.80;;;25.30;58.70;;;;;;5051112;28;20025;-75
2023/06/24 07:58:19;;;;;;;4.70;1.90;;;25.30;58.80;;;;;;5051851;28;20045;-75
2023/06/24 08:00:45;;;;;;;3.55;1.52;;;25.40;58.70;;;;;;5052215;28;20036;-74
2023/06/24 08:03:11;;;;;;;2.00;1.27;;;25.40;58.70;;;;;;5050880;28;20028;-74
2023/06/24 08:05:38;;;;;;;2.10;1.60;;;25.50;58.30;;;;;;5051838;28;20033;-74
2023/06/24 08:08:05;;;;;;;4.15;1.48;;;25.60;58.40;;;;;;5052168;28;20021;-74
2023/06/24 08:10:31;;;;;;;3.72;1.60;;;25.60;58.30;;;;;;5056155;28;20025;-74
2023/06/24 08:12:57;;;;;;;1.90;1.38;;;25.70;58.90;;;;;;5055689;28;20142;-74
2023/06/24 08:15:22;;;;;;;1.90;1.27;;;25.80;58.70;;;;;;5055935;28;20091;-74
2023/06/24 08:17:54;;;;;;;6.28;1.35;;;25.80;58.20;;;;;;5056036;28;20055;-74
2023/06/24 08:20:24;;;;;;;4.55;1.40;;;25.90;57.00;;;;;;5056213;28;20032;-74
2023/06/24 08:22:49;;;;;;;2.40;1.55;;;25.90;58.00;;;;;;5056022;28;20528;-74
2023/06/24 08:25:15;;;;;;;3.25;1.70;;;26.00;57.90;;;;;;5055818;28;20104;-74
2023/06/24 08:27:43;;;;;;;3.30;1.80;;;26.00;57.70;;;;;;5055815;28;20427;-74
2023/06/24 08:30:09;;;;;;;1.50;1.23;;;26.10;57.10;;;;;;5055726;28;20528;-73
2023/06/24 08:32:34;;;;;;;2.38;1.38;;;26.10;56.60;;;;;;5055095;28;20390;-74
2023/06/24 08:35:00;;;;;;;2.50;1.30;;;26.20;57.10;;;;;;5054916;28;20029;-74
2023/06/24 08:37:26;;;;;;;2.50;1.20;;;26.20;56.70;;;;;;5054986;28;20029;-74
2023/06/24 08:39:52;;;;;;;1.80;1.20;;;26.20;56.60;;;;;;5054963;28;20377;-74
2023/06/24 08:42:17;;;;;;;4.95;1.30;;;26.20;56.40;;;;;;5055111;28;20393;-73
2023/06/24 08:44:43;;;;;;;2.60;1.60;;;26.20;56.60;;;;;;5055769;28;20025;-73
2023/06/24 08:47:09;;;;;;;2.08;1.48;;;26.20;56.30;;;;;;5055445;28;20037;-73
2023/06/24 08:49:46;;;;;;;3.78;1.58;;;26.20;56.00;;;;;;5055227;28;20063;-73
2023/06/24 08:52:15;;;;;;;2.03;1.30;;;26.30;56.30;;;;;;5055141;28;20492;-73
2023/06/24 08:54:45;;;;;;;2.58;1.20;;;26.30;56.50;;;;;;5055091;28;20025;-73
2023/06/24 08:57:14;;;;;;;1.45;1.17;;;26.30;56.80;;;;;;5055108;28;20040;-73
2023/06/24 08:59:41;;;;;;;3.15;1.55;;;26.40;55.00;;;;;;5055084;28;20023;-73
2023/06/24 09:02:07;;;;;;;2.22;0.98;;;26.50;55.80;;;;;;5055125;28;20151;-73
2023/06/24 09:04:32;;;;;;;1.60;1.20;;;26.50;56.60;;;;;;5055075;28;20088;-73
2023/06/24 09:06:58;;;;;;;3.38;1.10;;;26.60;56.50;;;;;;5054828;28;20033;-73
2023/06/24 09:09:24;;;;;;;4.78;1.42;;;26.60;56.00;;;;;;5054905;28;20028;-73
2023/06/24 09:11:58;;;;;;;1.30;1.05;;;26.70;55.80;;;;;;5055098;28;20086;-73
2023/06/24 09:14:25;;;;;;;3.03;1.00;;;26.80;55.70;;;;;;5054953;28;20013;-74
2023/06/24 09:17:01;;;;;;;3.45;0.90;;;26.80;54.50;;;;;;5054959;28;20028;-74
2023/06/24 09:19:32;;;;;;;0.77;0.70;;;26.90;54.30;;;;;;5054706;28;20017;-74
2023/06/24 09:22:06;;;;;;;1.10;0.80;;;27.00;53.60;;;;;;5054783;28;20087;-74
2023/06/24 09:24:36;;;;;;;5.97;1.00;;;27.10;53.50;;;;;;5054592;28;20017;-73
2023/06/24 09:27:03;;;;;;;4.00;0.90;;;27.10;52.80;;;;;;5054601;28;20040;-73
2023/06/24 09:29:32;;;;;;;4.10;0.82;;;27.20;52.90;;;;;;5054554;28;20028;-73
2023/06/24 09:31:59;;;;;;;4.10;0.98;;;27.40;52.70;;;;;;5076724;28;20021;-73
2023/06/24 09:34:26;;;;;;;2.13;0.90;;;27.40;51.80;;;;;;5068195;28;20018;-75
2023/06/24 09:36:56;;;;;;;0.95;0.70;;;27.50;51.80;;;;;;5079581;28;20079;-72
2023/06/24 09:39:28;;;;;;;2.58;0.70;;;27.50;51.40;;;;;;5064775;28;20035;-73
2023/06/24 09:41:55;;;;;;;1.70;0.70;;;27.60;51.50;;;;;;5054706;28;20020;-74
2023/06/24 09:44:21;;;;;;;0.93;0.70;;;27.70;52.40;;;;;;5054475;28;20025;-74
2023/06/24 09:46:47;;;;;;;1.98;0.82;;;27.80;52.10;;;;;;5052892;28;20115;-74
2023/06/24 09:49:13;;;;;;;2.63;0.60;;;27.80;51.00;;;;;;5054316;28;20442;-74
2023/06/24 09:51:42;;;;;;;1.02;0.75;;;27.90;50.60;;;;;;5054376;28;20024;-74
2023/06/24 09:54:10;;;;;;;21.48;1.88;;;28.00;50.30;;;;;;5054363;28;20445;-74
2023/06/24 09:56:37;;;;;;;5.40;0.75;;;28.00;50.60;;;;;;5054177;28;20087;-75
2023/06/24 09:59:05;;;;;;;0.88;0.68;;;28.00;50.40;;;;;;5053850;28;20104;-74
2023/06/24 10:01:39;;;;;;;3.88;0.75;;;28.10;50.40;;;;;;5054050;28;20158;-75
2023/06/24 10:04:06;;;;;;;3.63;0.70;;;28.10;50.20;;;;;;5054154;28;20025;-74
2023/06/24 10:06:34;;;;;;;1.67;0.80;;;28.20;50.70;;;;;;5053815;28;20029;-75
2023/06/24 10:09:00;;;;;;;3.30;0.57;;;28.20;51.50;;;;;;5053901;28;20029;-74
2023/06/24 10:11:26;;;;;;;3.17;0.52;;;28.30;50.20;;;;;;5053661;28;20055;-74
2023/06/24 10:13:53;;;;;;;2.03;0.80;;;28.30;49.70;;;;;;5053482;28;20067;-75
2023/06/24 10:16:19;;;;;;;1.02;0.80;;;28.40;50.20;;;;;;5053842;28;20024;-75
2023/06/24 10:18:45;;;;;;;9.50;0.90;;;28.40;50.60;;;;;;5053927;28;20497;-74
2023/06/24 10:21:11;;;;;;;5.78;0.63;;;28.50;50.70;;;;;;5053748;28;20040;-73
2023/06/24 10:23:41;;;;;;;0.52;0.50;;;28.50;49.50;;;;;;5052444;28;20029;-74
2023/06/24 10:26:21;;;;;;;2.00;0.60;;;28.60;49.40;;;;;;5053303;28;20249;-74
2023/06/24 10:29:05;;;;;;;1.17;0.65;;;28.70;49.20;;;;;;5053499;28;20384;-75
2023/06/24 10:31:40;;;;;;;0.60;0.47;;;28.70;47.80;;;;;;5052687;28;20096;-75
2023/06/24 10:34:31;;;;;;;5.45;0.60;;;28.70;48.60;;;;;;5053317;28;20061;-74
2023/06/24 10:37:07;;;;;;;1.23;0.60;;;28.80;48.00;;;;;;5053107;28;20056;-74
2023/06/24 10:39:51;;;;;;;1.63;0.50;;;28.80;48.80;;;;;;5053401;28;20021;-75
2023/06/24 10:42:30;;;;;;;2.90;0.60;;;28.70;48.40;;;;;;5053655;28;20354;-74
2023/06/24 10:45:00;;;;;;;3.03;0.60;;;28.70;48.80;;;;;;5053397;28;20029;-74
2023/06/24 10:47:28;;;;;;;4.22;0.50;;;28.70;48.50;;;;;;5053208;28;20108;-74
2023/06/24 10:49:54;;;;;;;1.58;0.52;;;28.60;47.50;;;;;;5053229;28;20029;-74
2023/06/24 10:52:22;;;;;;;0.75;0.50;;;28.50;47.80;;;;;;5053095;28;20104;-75
2023/06/24 10:54:48;;;;;;;0.52;0.30;;;28.40;47.90;;;;;;5053116;28;20477;-75
2023/06/24 10:57:15;;;;;;;0.30;0.30;;;28.40;47.00;;;;;;5053094;28;20029;-75
2023/06/24 10:59:41;;;;;;;0.57;0.30;;;28.30;47.30;;;;;;5053091;28;20029;-74
2023/06/24 11:02:13;;;;;;;0.47;0.40;;;28.30;46.80;;;;;;5052942;28;20032;-74
2023/06/24 11:04:46;;;;;;;0.30;0.30;;;28.20;46.80;;;;;;5051824;28;20473;-74
2023/06/24 11:07:12;;;;;;;2.40;0.30;;;28.20;47.30;;;;;;5052871;28;20037;-74
2023/06/24 11:09:40;;;;;;;1.85;0.45;;;28.30;47.50;;;;;;5053045;28;20024;-75
2023/06/24 11:12:09;;;;;;;2.47;0.40;;;28.30;47.50;;;;;;5052780;28;20473;-75
2023/06/24 11:14:35;;;;;;;1.30;0.45;;;28.30;47.90;;;;;;5052948;28;20025;-75
2023/06/24 11:17:02;;;;;;;0.25;0.25;;;28.40;48.50;;;;;;5052808;28;20112;-74
2023/06/24 11:19:30;;;;;;;1.10;0.32;;;28.60;47.80;;;;;;5052772;28;20017;-74
2023/06/24 11:22:00;;;;;;;5.85;0.40;;;28.70;47.00;;;;;;5052626;28;20052;-75
2023/06/24 11:24:26;;;;;;;0.75;0.30;;;28.80;46.20;;;;;;5052951;28;20029;-75
2023/06/24 11:26:52;;;;;;;2.60;0.35;;;28.80;46.30;;;;;;5052699;28;20044;-74
2023/06/24 11:29:17;;;;;;;0.88;0.40;;;28.90;45.90;;;;;;5051372;28;20021;-74
2023/06/24 11:31:45;;;;;;;0.40;0.30;;;29.00;46.10;;;;;;5052494;28;20480;-75
2023/06/24 11:34:11;;;;;;;2.13;0.20;;;29.10;45.80;;;;;;5048639;28;20482;-74
2023/06/24 11:36:36;;;;;;;0.50;0.40;;;29.10;45.90;;;;;;5049991;28;20139;-75
2023/06/24 11:39:03;;;;;;;0.77;0.20;;;29.10;46.20;;;;;;5050455;28;20025;-74
2023/06/24 11:41:28;;;;;;;1.27;0.22;;;29.20;46.10;;;;;;5050759;28;20048;-75
2023/06/24 11:43:57;;;;;;;3.15;0.40;;;29.20;45.90;;;;;;5053118;28;20134;-75
2023/06/24 11:46:35;;;;;;;0.65;0.35;;;29.30;46.20;;;;;;5053587;28;20036;-74
2023/06/24 11:49:10;;;;;;;0.43;0.20;;;29.30;45.40;;;;;;5055537;28;20503;-75
2023/06/24 11:51:36;;;;;;;0.30;0.30;;;29.30;45.20;;;;;;5056462;28;20108;-74
2023/06/24 11:54:04;;;;;;;2.17;0.30;;;29.30;45.50;;;;;;5056354;28;20029;-74
2023/06/24 11:56:40;;;;;;;6.85;0.40;;;29.40;45.40;;;;;;5056543;28;20037;-75
2023/06/24 11:59:19;;;;;;;1.05;0.40;;;29.40;45.70;;;;;;5056370;28;20125;-74
2023/06/24 12:01:57;;;;;;;1.20;0.40;;;29.40;45.80;;;;;;5051881;28;20048;-74
2023/06/24 12:04:30;;;;;;;0.95;0.20;;;29.40;45.80;;;;;;5053457;28;20040;-74
2023/06/24 12:06:57;;;;;;;0.30;0.30;;;29.40;45.70;;;;;;5054497;28;20029;-74
2023/06/24 12:09:23;;;;;;;1.65;0.30;;;29.40;45.70;;;;;;5055222;28;20025;-74
2023/06/24 12:11:49;;;;;;;1.92;0.30;;;29.50;45.10;;;;;;5055441;28;20025;-74
2023/06/24 12:14:15;;;;;;;0.30;0.20;;;29.50;44.90;;;;;;5055282;28;20092;-75
2023/06/24 12:16:40;;;;;;;0.30;0.30;;;29.50;45.60;;;;;;5055255;28;20029;-74
2023/06/24 12:19:07;;;;;;;0.75;0.35;;;29.60;45.50;;;;;;5054134;28;20162;-74
2023/06/24 12:21:33;;;;;;;1.63;0.40;;;29.60;45.50;;;;;;5055786;28;20032;-74
2023/06/24 12:23:59;;;;;;;1.17;0.40;;;29.60;45.30;;;;;;5054980;28;20032;-75
2023/06/24 12:26:24;;;;;;;2.55;0.40;;;29.70;45.60;;;;;;5055313;28;20040;-74
2023/06/24 12:28:50;;;;;;;4.63;0.50;;;29.70;45.60;;;;;;5053904;28;20031;-74
2023/06/24 12:31:16;;;;;;;4.30;0.40;;;29.70;45.20;;;;;;5055214;28;20029;-74
2023/06/24 12:33:42;;;;;;;2.42;0.50;;;29.80;44.70;;;;;;5055301;28;20024;-75
2023/06/24 12:36:07;;;;;;;1.48;0.40;;;29.80;44.60;;;;;;5055006;28;20055;-75
2023/06/24 12:38:35;;;;;;;4.43;0.40;;;29.80;45.10;;;;;;5055114;28;20016;-74
2023/06/24 12:41:01;;;;;;;1.50;0.35;;;29.80;44.50;;;;;;5055089;28;20032;-74
2023/06/24 12:43:27;;;;;;;0.70;0.50;;;29.80;44.20;;;;;;5054553;28;20029;-74
2023/06/24 12:45:53;;;;;;;0.95;0.47;;;29.80;44.10;;;;;;5054313;28;20021;-75
2023/06/24 12:48:18;;;;;;;0.28;0.20;;;29.80;44.60;;;;;;5054592;28;20056;-74